עמוד ראשי
METAR-TAF:

METAR-TAF

שדות תעופה :

Bettles, אלסקה, ארצות הברית

קו רוחב: 66-55N, קו אורך: 151-31W, גובה: 196מטר

תצפית מזג אוויר נוכחית

הדו"ח נערך לפני 40דקות, בשעה 16:53 UTC
רוח רגועה
טמפרטורת 16 צלסיוס
לחות 72%
לחץ 1014 hPa
ראות: 16.1קילומטר
מעט עננים בגובה 10000רגל

METAR: PABT 191653Z 00000KT 10SM FEW100 16/11 A2993 RMK AO2 SLP142 T01610111 $

זמן: 09:33 (17:33 UTC)

תחזית

הדו"ח נערך לפני 5 שעות ו 42דקות, בשעה 11:51 UTC
תחזית בתוקף מ 19 ב 12 UTC עד 20 ב 12 UTC
רוח 3קשר עם כיוונים משתנים
ראות: 10קילומטר
עננים פזורים בגובה 7000רגל
ממטרים במרחב
מ 19 ב 1800UTC
רוח 5קשר מכיוון מערב/דרום-מערב
ראות: 10קילומטר
עננים בינוניים בגובה 7000רגל , קומולונימבוס.
סופת רעמים במרחב
הסתברות 30%
19 ב 21 UTC עד 20 ב 03 UTC
עננים בינוניים בגובה 6000רגל , קומולונימבוס.
סופת רעמים, גשם קל
מ 20 ב 0800UTC
רוח 4קשר מכיוון צפון/צפון-מערב
ראות: 10קילומטר
עננים בינוניים בגובה 6000רגל
ממטרים במרחב,

TAF: PABT 191151Z 1912/2012 VRB03KT P6SM VCSH SCT070 FM191800 25005KT P6SM VCTS BKN070CB PROB30 1921/2003 -TSRA BKN060CB FM200800 33004KT P6SM VCSH BKN060

תצפיות ותחזיות מזג אוויר לגבי יותר מ- 4,000 שדות תעופה ברחבי העולם. דוחות METAR ו- TAF.

התחנות הזמינות מסומנות בנקודות צהובות ואדומות על גבי המפה.

העבר את העכבר לנקודה הצבעונית על מנת לראות את שם התחנה.

לאחר מכן, לחץ כדי לראות את תוכן ואת תחזיות מזג האוויר.

כדי לשנות את המפה: לחץ על הכפתורים הירוקים עם הפלוס השחור כדי להתקרב; על הכפתור הירוק עם המקף כדי להתרחק; או בחיצים הירוקים למפות סמוכות.


METAR-TAF: